createdAt,value
2019-03-05T00:03:34.271Z,49.10
2019-03-05T00:09:37.266Z,49.10
2019-03-05T00:15:40.018Z,49.10
2019-03-05T00:21:42.735Z,49.10
2019-03-05T00:28:00.881Z,49.00
2019-03-05T00:34:21.590Z,49.10
2019-03-05T00:40:51.332Z,49.00
2019-03-05T00:46:57.320Z,49.00
2019-03-05T00:53:15.370Z,48.90
2019-03-05T00:59:30.203Z,48.90
2019-03-05T01:05:48.282Z,48.90
2019-03-05T01:11:51.037Z,49.00
2019-03-05T01:17:53.763Z,48.90
2019-03-05T01:23:56.807Z,48.90
2019-03-05T01:29:59.536Z,49.00
2019-03-05T01:36:02.539Z,48.90
2019-03-05T01:42:05.541Z,48.80
2019-03-05T01:48:08.559Z,48.80
2019-03-05T01:54:11.334Z,48.70
2019-03-05T02:00:14.084Z,48.80
2019-03-05T02:06:16.892Z,48.70
2019-03-05T02:12:19.612Z,48.70
2019-03-05T02:18:25.596Z,48.70
2019-03-05T02:24:48.084Z,48.60
2019-03-05T02:31:09.181Z,48.60
2019-03-05T02:37:20.407Z,48.70
2019-03-05T02:43:31.982Z,49.10
2019-03-05T02:49:40.535Z,48.60
2019-03-05T02:55:58.034Z,48.50
2019-03-05T03:02:00.768Z,48.60
2019-03-05T03:08:23.157Z,48.60
2019-03-05T03:14:25.890Z,48.50
2019-03-05T03:20:28.960Z,48.50
2019-03-05T03:26:31.742Z,48.50
2019-03-05T03:32:34.509Z,48.50
2019-03-05T03:38:37.586Z,48.50
2019-03-05T03:44:59.741Z,48.40
2019-03-05T03:51:02.465Z,48.40
2019-03-05T03:57:05.226Z,48.40
2019-03-05T04:03:08.931Z,48.30
2019-03-05T04:09:11.991Z,48.40
2019-03-05T04:15:16.478Z,48.40
2019-03-05T04:21:20.173Z,48.40
2019-03-05T04:27:23.039Z,49.00
2019-03-05T04:33:25.785Z,48.30
2019-03-05T04:39:47.940Z,48.40
2019-03-05T04:45:49.791Z,48.20
2019-03-05T04:51:52.512Z,48.20
2019-03-05T04:57:55.268Z,48.30
2019-03-05T05:03:57.992Z,48.30
2019-03-05T05:10:01.044Z,48.50
2019-03-05T05:16:03.768Z,48.50
2019-03-05T05:22:06.859Z,48.50
2019-03-05T05:28:09.584Z,48.50
2019-03-05T05:34:12.308Z,48.60
2019-03-05T05:40:29.592Z,48.60
2019-03-05T05:46:32.560Z,48.50
2019-03-05T05:52:35.284Z,48.50
2019-03-05T05:58:38.010Z,48.40
2019-03-05T06:04:40.737Z,48.50
2019-03-05T06:10:43.456Z,48.30
2019-03-05T06:16:46.179Z,48.20
2019-03-05T06:22:48.913Z,48.20
2019-03-05T06:28:51.637Z,48.10
2019-03-05T06:34:54.673Z,48.10
2019-03-05T06:40:57.392Z,48.10
2019-03-05T06:47:00.112Z,48.00
2019-03-05T06:53:02.864Z,48.00
2019-03-05T06:59:05.896Z,47.90
2019-03-05T07:05:45.496Z,47.90
2019-03-05T07:11:57.816Z,47.90
2019-03-05T07:18:24.765Z,47.90
2019-03-05T07:24:46.682Z,47.90
2019-03-05T07:30:49.135Z,47.90
2019-03-05T07:36:51.860Z,48.00
2019-03-05T07:42:54.579Z,48.00
2019-03-05T07:48:57.304Z,48.00
2019-03-05T07:55:00.032Z,48.00
2019-03-05T08:01:02.806Z,48.40
2019-03-05T08:07:25.012Z,47.90
2019-03-05T08:13:29.380Z,48.70
2019-03-05T08:19:32.356Z,47.90
2019-03-05T08:25:35.079Z,47.80
2019-03-05T08:31:37.806Z,47.90
2019-03-05T08:37:40.880Z,47.80
2019-03-05T08:44:03.069Z,47.90
2019-03-05T08:50:09.531Z,47.90
2019-03-05T08:56:12.252Z,47.90
2019-03-05T09:02:15.252Z,47.90
2019-03-05T09:08:38.473Z,47.90
2019-03-05T09:14:41.401Z,47.90
2019-03-05T09:20:44.131Z,47.90
2019-03-05T09:26:54.809Z,48.30
2019-03-05T09:32:57.540Z,47.90
2019-03-05T09:39:00.264Z,47.90
2019-03-05T09:45:22.428Z,47.90
2019-03-05T09:51:25.428Z,48.10
2019-03-05T09:57:28.153Z,48.00
2019-03-05T10:03:30.877Z,48.10
2019-03-05T10:09:33.948Z,48.10
2019-03-05T10:15:36.709Z,48.20
2019-03-05T10:21:46.248Z,48.10
2019-03-05T10:27:43.928Z,48.10
2019-03-05T10:33:47.009Z,48.20
2019-03-05T10:39:49.747Z,48.10
2019-03-05T10:45:52.485Z,48.10
2019-03-05T10:51:55.464Z,48.10
2019-03-05T10:57:58.200Z,48.00
2019-03-05T11:04:00.920Z,47.90
2019-03-05T11:10:06.372Z,48.00
2019-03-05T11:16:09.096Z,47.90
2019-03-05T11:22:12.125Z,48.00
2019-03-05T11:28:14.874Z,48.00
2019-03-05T11:34:17.604Z,48.00
2019-03-05T11:40:21.208Z,48.10
2019-03-05T11:46:24.253Z,48.10
2019-03-05T11:52:27.012Z,48.10
2019-03-05T11:58:42.384Z,48.10
2019-03-05T12:04:45.158Z,48.10
2019-03-05T12:10:47.916Z,48.20
2019-03-05T12:16:50.731Z,48.20
2019-03-05T12:22:53.912Z,48.20
2019-03-05T12:28:56.640Z,48.20
2019-03-05T12:34:59.408Z,48.20
2019-03-05T12:41:02.233Z,48.20
2019-03-05T12:47:05.023Z,48.80
2019-03-05T12:53:08.153Z,48.30
2019-03-05T12:59:11.174Z,48.20
2019-03-05T13:05:15.392Z,48.30
2019-03-05T13:11:18.132Z,48.30
2019-03-05T13:17:20.868Z,48.20
2019-03-05T13:23:23.601Z,48.20
2019-03-05T13:29:26.384Z,48.30
2019-03-05T13:35:30.540Z,48.20
2019-03-05T13:41:33.841Z,48.40
2019-03-05T13:47:41.616Z,48.30
2019-03-05T13:54:00.489Z,48.30
2019-03-05T14:00:07.713Z,48.30
2019-03-05T14:06:34.426Z,48.30
2019-03-05T14:12:56.621Z,48.30
2019-03-05T14:18:59.353Z,48.30
2019-03-05T14:25:03.070Z,48.30
2019-03-05T14:31:05.994Z,48.30
2019-03-05T14:37:08.774Z,48.30
2019-03-05T14:43:11.624Z,48.30
2019-03-05T14:49:14.439Z,48.40
2019-03-05T14:55:17.187Z,48.30
2019-03-05T15:01:20.047Z,48.40
2019-03-05T15:07:22.805Z,48.50
2019-03-05T15:13:25.580Z,48.40
2019-03-05T15:19:28.346Z,48.70
2019-03-05T15:25:31.116Z,48.40
2019-03-05T15:31:33.842Z,48.50
2019-03-05T15:37:36.581Z,48.40
2019-03-05T15:43:39.354Z,48.40
2019-03-05T15:49:42.561Z,48.90
2019-03-05T15:55:45.435Z,48.40
2019-03-05T16:01:48.207Z,48.40
2019-03-05T16:07:50.952Z,48.30
2019-03-05T16:13:56.411Z,48.40
2019-03-05T16:19:58.175Z,48.40
2019-03-05T16:26:23.676Z,48.40
2019-03-05T16:32:26.845Z,49.00
2019-03-05T16:38:29.332Z,48.30
2019-03-05T16:44:32.093Z,48.40
2019-03-05T16:50:34.911Z,48.50
2019-03-05T16:56:37.653Z,48.40
2019-03-05T17:02:40.408Z,48.40
2019-03-05T17:08:43.412Z,48.40
2019-03-05T17:14:46.136Z,48.30
2019-03-05T17:20:48.883Z,48.30
2019-03-05T17:26:51.613Z,48.40
2019-03-05T17:32:54.347Z,48.50
2019-03-05T17:38:57.183Z,48.40
2019-03-05T17:44:59.965Z,48.40
2019-03-05T17:51:02.722Z,48.40
2019-03-05T17:57:05.696Z,48.30
2019-03-05T18:03:08.492Z,48.30
2019-03-05T18:09:11.228Z,48.30
2019-03-05T18:15:15.090Z,48.30
2019-03-05T18:21:17.896Z,48.40
2019-03-05T18:27:20.632Z,48.30
2019-03-05T18:33:23.456Z,48.30
2019-03-05T18:39:26.180Z,48.20
2019-03-05T18:45:34.027Z,48.30
2019-03-05T18:51:37.047Z,48.30
2019-03-05T18:57:39.776Z,48.20
2019-03-05T19:03:42.865Z,48.30
2019-03-05T19:09:45.584Z,48.20
2019-03-05T19:16:09.546Z,48.20
2019-03-05T19:22:12.277Z,48.30
2019-03-05T19:28:15.028Z,48.20
2019-03-05T19:34:17.838Z,48.20
2019-03-05T19:40:26.058Z,48.20
2019-03-05T19:46:28.771Z,48.20
2019-03-05T19:52:31.586Z,48.20
2019-03-05T19:58:34.368Z,48.20
2019-03-05T20:04:37.096Z,48.80
2019-03-05T20:10:40.171Z,48.10
2019-03-05T20:16:42.901Z,48.10
2019-03-05T20:22:45.623Z,48.00
2019-03-05T20:29:07.780Z,48.00
2019-03-05T20:35:10.507Z,48.10
2019-03-05T20:41:13.259Z,48.10
2019-03-05T20:47:16.368Z,48.00
2019-03-05T20:53:19.108Z,48.00
2019-03-05T20:59:21.856Z,48.00
2019-03-05T21:05:27.049Z,48.00
2019-03-05T21:11:29.876Z,48.00
2019-03-05T21:17:32.905Z,47.90
2019-03-05T21:23:35.684Z,48.00
2019-03-05T21:29:38.495Z,47.90
2019-03-05T21:35:41.225Z,47.80
2019-03-05T21:41:44.008Z,47.80
2019-03-05T21:48:06.190Z,47.90
2019-03-05T21:54:08.979Z,47.80
2019-03-05T22:00:23.653Z,47.90
2019-03-05T22:06:26.376Z,47.90
2019-03-05T22:12:29.124Z,47.90
2019-03-05T22:18:32.232Z,47.90
2019-03-05T22:24:35.244Z,48.30
2019-03-05T22:30:38.342Z,47.70
2019-03-05T22:37:00.878Z,47.70
2019-03-05T22:43:03.645Z,47.70
2019-03-05T22:49:26.175Z,47.70
2019-03-05T22:55:28.912Z,47.70
2019-03-05T23:01:34.456Z,47.70
2019-03-05T23:07:37.183Z,47.70
2019-03-05T23:13:39.913Z,47.70
2019-03-05T23:19:42.756Z,47.70
2019-03-05T23:25:45.805Z,47.60
2019-03-05T23:31:48.536Z,47.60
2019-03-05T23:37:51.528Z,47.60
2019-03-05T23:43:54.287Z,47.60
2019-03-05T23:49:57.005Z,47.60
2019-03-05T23:55:59.731Z,47.60
